Time;durP1;ratioP1;P1;durP2;ratioP2;P2;SDS_P1;SDS_P2;PMS_P1;PMS_P2;Temp;Humidity;BMP_temperature;BMP_pressure;BME280_temperature;BME280_humidity;BME280_pressure;Samples;Min_cycle;Max_cycle;Signal;HPM_P1;HPM_P2
2022/01/12 00:02:18;;;;;;;0.20;0.10;;;;;;;3.27;100.00;102210.19;5035108;28;20998;-51
2022/01/12 00:04:45;;;;;;;0.20;0.10;;;;;;;3.44;100.00;102209.00;5035351;28;20448;-51
2022/01/12 00:07:12;;;;;;;0.20;0.10;;;;;;;3.40;100.00;102216.72;5034874;28;20996;-51
2022/01/12 00:09:39;;;;;;;0.20;0.10;;;;;;;3.32;100.00;102213.00;5035112;28;20451;-51
2022/01/12 00:12:07;;;;;;;0.20;0.10;;;;;;;3.32;100.00;102218.25;5034945;28;20449;-51
2022/01/12 00:14:34;;;;;;;0.20;0.10;;;;;;;3.17;100.00;102226.53;5034864;28;20949;-51
2022/01/12 00:17:00;;;;;;;0.20;0.20;;;;;;;3.30;99.55;102217.31;5034718;28;20487;-51
2022/01/12 00:19:29;;;;;;;0.40;0.40;;;;;;;3.27;99.89;102218.97;5034832;28;20479;-51
2022/01/12 00:21:56;;;;;;;0.20;0.10;;;;;;;3.22;99.61;102224.94;5034677;28;20529;-51
2022/01/12 00:24:26;;;;;;;0.20;0.10;;;;;;;3.31;99.68;102225.25;5034720;28;20467;-51
2022/01/12 00:35:09;;;;;;;0.20;0.10;;;;;;;3.23;99.55;102246.00;5022564;28;20539;-51
2022/01/12 00:37:35;;;;;;;0.20;0.10;;;;;;;3.09;100.00;102239.41;5034193;28;20506;-51
2022/01/12 00:40:02;;;;;;;0.20;0.10;;;;;;;3.19;100.00;102233.63;5034372;28;20452;-51
2022/01/12 00:42:29;;;;;;;0.20;0.10;;;;;;;3.14;100.00;102237.81;5034280;28;20509;-51
2022/01/12 00:45:00;;;;;;;0.20;0.10;;;;;;;3.19;100.00;102246.75;5034364;28;20452;-51
2022/01/12 00:47:26;;;;;;;0.20;0.10;;;;;;;3.01;100.00;102256.63;5034197;28;20530;-51
2022/01/12 00:49:53;;;;;;;0.20;0.10;;;;;;;3.09;100.00;102249.91;5034395;28;20908;-51
2022/01/12 00:52:20;;;;;;;0.20;0.10;;;;;;;3.03;100.00;102249.72;5034092;28;20494;-51
2022/01/12 00:54:46;;;;;;;0.20;0.10;;;;;;;3.02;100.00;102242.69;5034126;28;20969;-51
2022/01/12 00:57:13;;;;;;;0.20;0.10;;;;;;;2.96;100.00;102240.72;5033481;28;20495;-51
2022/01/12 00:59:39;;;;;;;0.20;0.10;;;;;;;3.07;100.00;102234.94;5034164;28;20460;-51
2022/01/12 01:02:07;;;;;;;0.20;0.10;;;;;;;2.98;100.00;102232.88;5033998;28;20451;-51
2022/01/12 01:04:33;;;;;;;0.20;0.10;;;;;;;2.85;100.00;102242.06;5033983;28;20461;-51
2022/01/12 01:07:00;;;;;;;0.20;0.10;;;;;;;2.79;100.00;102238.38;5033696;28;20466;-51
2022/01/12 01:09:27;;;;;;;0.20;0.10;;;;;;;3.00;100.00;102228.56;5034288;28;20454;-51
2022/01/12 01:11:53;;;;;;;0.20;0.10;;;;;;;2.97;100.00;102223.22;5033850;28;20553;-51
2022/01/12 01:14:37;;;;;;;0.20;0.10;;;;;;;2.80;100.00;102211.25;5033793;28;20508;-51
2022/01/12 01:25:27;;;;;;;2.80;2.57;;;;;;;2.52;100.00;102219.91;5033152;28;20491;-51
2022/01/12 01:25:36;;;;;;;0.20;0.10;;;;;;;2.97;100.00;102223.22;5022237;28;20509;-51
2022/01/12 01:28:05;;;;;;;0.20;0.10;;;;;;;2.40;100.00;102233.50;5033576;28;20471;-51
2022/01/12 01:30:35;;;;;;;0.20;0.10;;;;;;;2.62;100.00;102229.91;5016048;28;20501;-51
2022/01/12 01:33:07;;;;;;;0.20;0.10;;;;;;;2.16;100.00;102235.22;5033447;28;20451;-51
2022/01/12 01:35:39;;;;;;;0.20;0.10;;;;;;;2.00;100.00;102232.03;5033401;28;20864;-51
2022/01/12 01:38:07;;;;;;;0.20;0.10;;;;;;;1.80;100.00;102238.25;5032991;28;20885;-51
2022/01/12 01:40:36;;;;;;;0.20;0.10;;;;;;;1.75;100.00;102237.16;5033446;28;20455;-51
2022/01/12 01:53:51;;;;;;;0.20;0.20;;;;;;;1.33;100.00;102244.22;5033084;28;20452;-51
2022/01/12 01:56:19;;;;;;;0.20;0.10;;;;;;;1.47;100.00;102248.28;5033087;28;20480;-51
2022/01/12 01:58:47;;;;;;;0.20;0.10;;;;;;;1.49;100.00;102247.50;5032752;28;20487;-51
2022/01/12 02:01:15;;;;;;;0.20;0.10;;;;;;;1.39;100.00;102245.38;5032837;28;20448;-51
2022/01/12 02:03:43;;;;;;;0.20;0.10;;;;;;;1.30;100.00;102242.38;5032909;28;20932;-51
2022/01/12 02:06:11;;;;;;;0.20;0.10;;;;;;;1.24;100.00;102243.88;5033017;28;20470;-51
2022/01/12 02:08:38;;;;;;;0.20;0.10;;;;;;;1.27;100.00;102241.38;5032335;28;20594;-51
2022/01/12 02:11:05;;;;;;;0.30;0.10;;;;;;;1.01;100.00;102242.91;5033063;28;20862;-51
2022/01/12 02:13:32;;;;;;;0.20;0.10;;;;;;;1.21;100.00;102252.47;5032714;28;20447;-51
2022/01/12 02:15:59;;;;;;;0.20;0.10;;;;;;;1.17;100.00;102258.44;5032835;28;20525;-51
2022/01/12 02:40:24;;;;;;;0.20;0.10;;;;;;;0.69;100.00;102258.16;5032356;28;20502;-51
2022/01/12 02:43:08;;;;;;;0.20;0.10;;;;;;;0.63;100.00;102251.75;5032284;28;20474;-51
2022/01/12 02:51:28;;;;;;;0.20;0.10;;;;;;;0.44;100.00;102243.09;5032236;28;20863;-51
2022/01/12 02:53:54;;;;;;;0.20;0.10;;;;;;;0.30;100.00;102244.22;5032392;28;20443;-50
2022/01/12 02:56:27;;;;;;;0.20;0.10;;;;;;;0.38;100.00;102253.28;5032522;28;20903;-51
2022/01/12 02:58:56;;;;;;;0.30;0.10;;;;;;;0.16;100.00;102254.06;5032147;28;20529;-51
2022/01/12 03:03:59;;;;;;;0.20;0.10;;;;;;;0.99;100.00;102279.50;5032543;28;20471;-51
2022/01/12 03:06:33;;;;;;;0.20;0.10;;;;;;;0.88;100.00;102283.38;5032295;28;20444;-51
2022/01/12 03:09:01;;;;;;;0.20;0.10;;;;;;;0.65;100.00;102287.63;5032292;28;21003;-51
2022/01/12 03:11:28;;;;;;;0.20;0.10;;;;;;;0.29;100.00;102279.94;5032281;28;20949;-51
2022/01/12 03:13:55;;;;;;;0.20;0.10;;;;;;;0.24;100.00;102283.16;5032389;28;20578;-50
2022/01/12 03:16:25;;;;;;;0.20;0.10;;;;;;;0.27;100.00;102278.06;5031817;28;20999;-51
2022/01/12 03:18:56;;;;;;;0.20;0.10;;;;;;;0.29;100.00;102279.03;5032246;28;20494;-51
2022/01/12 03:21:26;;;;;;;0.20;0.10;;;;;;;0.17;100.00;102275.88;5035274;28;20448;-51
2022/01/12 03:23:54;;;;;;;0.73;0.73;;;;;;;0.17;100.00;102270.63;5035999;28;20842;-51
2022/01/12 03:26:22;;;;;;;0.20;0.20;;;;;;;0.21;100.00;102285.63;5035850;28;20875;-51
2022/01/12 03:28:53;;;;;;;0.20;0.10;;;;;;;0.05;100.00;102281.44;5036013;28;20501;-50
2022/01/12 03:31:23;;;;;;;0.20;0.10;;;;;;;-0.01;100.00;102281.13;5035866;28;20447;-50
2022/01/12 03:33:56;;;;;;;0.20;0.10;;;;;;;0.08;100.00;102292.00;5035820;28;20483;-51
2022/01/12 03:39:06;;;;;;;0.20;0.10;;;;;;;0.82;100.00;102312.81;5035510;28;20537;-51
2022/01/12 03:41:35;;;;;;;0.20;0.10;;;;;;;0.75;100.00;102317.72;5036015;28;20482;-51
2022/01/12 03:44:04;;;;;;;4.00;1.80;;;;;;;0.54;100.00;102317.63;5035712;28;20458;-51
2022/01/12 03:46:39;;;;;;;0.20;0.10;;;;;;;0.41;100.00;102321.44;5035648;28;20497;-50
2022/01/12 03:49:06;;;;;;;0.20;0.10;;;;;;;0.35;100.00;102310.69;5035417;28;20475;-51
2022/01/12 03:51:33;;;;;;;0.20;0.10;;;;;;;0.26;100.00;102320.72;5035591;28;20948;-50
2022/01/12 03:54:00;;;;;;;0.20;0.10;;;;;;;0.26;100.00;102316.38;5035297;28;20487;-51
2022/01/12 03:56:27;;;;;;;0.20;0.10;;;;;;;0.16;100.00;102314.19;5037728;28;20494;-51
2022/01/12 03:58:54;;;;;;;0.20;0.10;;;;;;;-0.06;100.00;102316.63;5044610;28;20549;-50
2022/01/12 04:01:21;;;;;;;0.20;0.10;;;;;;;-0.05;100.00;102318.41;5046825;28;20946;-51
2022/01/12 04:03:58;;;;;;;0.20;0.10;;;;;;;-0.09;100.00;102308.66;5045456;28;20470;-50
2022/01/12 04:09:31;;;;;;;0.20;0.10;;;;;;;0.03;100.00;102330.13;5047084;28;20448;-51
2022/01/12 04:11:57;;;;;;;0.20;0.10;;;;;;;-0.05;100.00;102323.63;5046420;28;20471;-51
2022/01/12 04:14:24;;;;;;;0.20;0.10;;;;;;;-0.12;100.00;102318.97;5045862;28;20482;-51
2022/01/12 04:16:50;;;;;;;0.20;0.10;;;;;;;-0.17;100.00;102326.56;5039100;28;20541;-51
2022/01/12 04:19:17;;;;;;;0.20;0.10;;;;;;;0.20;100.00;102325.69;5039170;28;20956;-51
2022/01/12 04:21:48;;;;;;;0.20;0.10;;;;;;;-0.02;100.00;102331.63;5039221;28;20451;-51
2022/01/12 04:24:14;;;;;;;0.20;0.10;;;;;;;-0.05;100.00;102321.03;5040117;28;20448;-51
2022/01/12 04:26:41;;;;;;;0.20;0.10;;;;;;;-0.10;100.00;102327.75;5037620;28;20491;-50
2022/01/12 04:29:08;;;;;;;0.20;0.10;;;;;;;-0.01;100.00;102318.63;5035308;28;21043;-51
2022/01/12 04:31:36;;;;;;;0.20;0.10;;;;;;;-0.08;100.00;102316.56;5034252;28;21014;-51
2022/01/12 04:34:04;;;;;;;0.20;0.10;;;;;;;0.04;100.00;102318.84;5035210;28;20513;-51
2022/01/12 04:36:32;;;;;;;0.20;0.10;;;;;;;0.04;100.00;102318.84;5037921;28;20487;-51
2022/01/12 04:38:59;;;;;;;0.20;0.10;;;;;;;-0.09;100.00;102312.16;5035976;28;20518;-51
2022/01/12 04:41:26;;;;;;;0.20;0.10;;;;;;;0.01;100.00;102308.25;5037383;28;20452;-51
2022/01/12 04:43:53;;;;;;;0.20;0.10;;;;;;;0.09;100.00;102304.25;5036676;28;20513;-51
2022/01/12 04:46:29;;;;;;;0.20;0.10;;;;;;;0.05;100.00;102294.50;5018966;28;20452;-51
2022/01/12 04:51:48;;;;;;;0.20;0.10;;;;;;;0.20;100.00;102295.19;5012170;28;20448;-51
2022/01/12 04:54:15;;;;;;;0.20;0.10;;;;;;;0.33;100.00;102295.75;5034427;28;20518;-51
2022/01/12 04:56:41;;;;;;;0.20;0.10;;;;;;;0.55;100.00;102295.91;5034475;28;20496;-51
2022/01/12 04:59:08;;;;;;;0.43;0.43;;;;;;;0.50;100.00;102306.16;5047462;23;20496;-54
2022/01/12 05:01:47;;;;;;;0.20;0.13;;;;;;;0.46;100.00;102311.19;5021434;28;20499;-53
2022/01/12 05:07:24;;;;;;;0.20;0.10;;;;;;;0.67;100.00;102309.50;5033376;28;20493;-54
2022/01/12 05:12:45;;;;;;;0.20;0.10;;;;;;;0.57;100.00;102300.38;5033500;28;20471;-53
2022/01/12 05:15:16;;;;;;;0.20;0.10;;;;;;;0.53;100.00;102298.44;5033099;28;20451;-53
2022/01/12 05:17:43;;;;;;;0.20;0.10;;;;;;;0.48;100.00;102306.91;5033396;28;20523;-53
2022/01/12 05:20:10;;;;;;;0.20;0.10;;;;;;;0.57;100.00;102300.38;5033193;28;20478;-56
2022/01/12 05:22:36;;;;;;;0.20;0.10;;;;;;;0.57;100.00;102291.63;5033403;28;20447;-54
2022/01/12 05:25:03;;;;;;;0.20;0.20;;;;;;;0.51;100.00;102293.97;5033071;28;20456;-53
2022/01/12 05:27:30;;;;;;;0.30;0.20;;;;;;;0.46;100.00;102292.88;5033101;28;20591;-54
2022/01/12 05:29:57;;;;;;;0.20;0.10;;;;;;;0.45;100.00;102291.97;5032950;28;20526;-54
2022/01/12 05:32:24;;;;;;;0.20;0.10;;;;;;;0.79;100.00;102296.97;5033015;28;20478;-53
2022/01/12 05:34:57;;;;;;;0.20;0.10;;;;;;;0.52;100.00;102287.91;5032885;28;20531;-54
2022/01/12 05:37:25;;;;;;;0.20;0.10;;;;;;;0.16;100.00;102285.44;5032865;28;20503;-54
2022/01/12 05:39:51;;;;;;;0.20;0.10;;;;;;;0.42;100.00;102307.53;5032639;28;20502;-55
2022/01/12 05:42:25;;;;;;;0.20;0.10;;;;;;;0.44;100.00;102318.06;5032821;28;20995;-54
2022/01/12 05:44:52;;;;;;;2.10;2.10;;;;;;;0.43;100.00;102332.88;5031821;28;20456;-54
2022/01/12 05:47:36;;;;;;;0.20;0.10;;;;;;;0.29;100.00;102321.78;5032560;28;20497;-54
2022/01/12 05:50:04;;;;;;;0.20;0.10;;;;;;;0.34;100.00;102337.66;5032626;28;20468;-54
2022/01/12 05:52:30;;;;;;;0.20;0.20;;;;;;;0.22;100.00;102335.38;5032494;28;20959;-54
2022/01/12 05:54:57;;;;;;;0.20;0.20;;;;;;;0.18;100.00;102333.47;5032725;28;20451;-54
2022/01/12 05:57:26;;;;;;;0.20;0.10;;;;;;;0.21;100.00;102330.97;5032269;28;20605;-53
2022/01/12 05:59:52;;;;;;;0.20;0.10;;;;;;;0.06;100.00;102343.34;5032433;28;20491;-54
2022/01/12 06:02:19;;;;;;;0.20;0.10;;;;;;;-0.10;100.00;102335.59;5032446;28;20452;-54
2022/01/12 06:04:46;;;;;;;0.20;0.10;;;;;;;-0.20;100.00;102330.75;5032257;28;20451;-54
2022/01/12 06:07:13;;;;;;;0.20;0.10;;;;;;;0.05;100.00;102331.09;5032093;28;20486;-54
2022/01/12 06:09:39;;;;;;;0.20;0.10;;;;;;;0.04;100.00;102341.47;5032378;28;20468;-53
2022/01/12 06:12:07;;;;;;;0.20;0.10;;;;;;;-0.10;100.00;102339.09;5032226;28;20448;-54
2022/01/12 06:14:34;;;;;;;0.20;0.10;;;;;;;-0.08;100.00;102337.47;5032137;28;21018;-54
2022/01/12 06:17:01;;;;;;;0.20;0.10;;;;;;;-0.17;100.00;102341.34;5031955;28;20541;-53
2022/01/12 06:19:28;;;;;;;0.20;0.10;;;;;;;-0.33;100.00;102337.09;5032056;28;20530;-54
2022/01/12 06:21:54;;;;;;;0.20;0.10;;;;;;;-0.40;100.00;102341.16;5032089;28;20518;-54
2022/01/12 06:24:21;;;;;;;0.20;0.10;;;;;;;-0.16;100.00;102341.41;5031960;28;20494;-53
2022/01/12 06:26:48;;;;;;;0.20;0.10;;;;;;;-0.14;100.00;102349.31;5032067;28;20452;-53
2022/01/12 06:31:49;;;;;;;0.20;0.10;;;;;;;0.00;100.00;102366.59;5019137;28;20470;-53
2022/01/12 06:34:16;;;;;;;0.20;0.10;;;;;;;0.06;100.00;102374.72;5031767;28;20859;-54
2022/01/12 06:36:43;;;;;;;0.77;0.77;;;;;;;0.01;100.00;102365.75;5032105;28;20531;-54
2022/01/12 06:39:12;;;;;;;0.20;0.10;;;;;;;-0.02;100.00;102365.59;5031730;28;20472;-54
2022/01/12 06:41:40;;;;;;;0.40;0.37;;;;;;;-0.08;100.00;102366.22;5031959;28;20447;-53
2022/01/12 06:44:08;;;;;;;0.20;0.10;;;;;;;-0.18;100.00;102369.19;5031943;28;20447;-52
2022/01/12 06:46:35;;;;;;;0.20;0.10;;;;;;;-0.27;100.00;102371.38;5031801;28;20842;-53
2022/01/12 06:49:02;;;;;;;0.20;0.10;;;;;;;-0.29;100.00;102362.53;5031903;28;20554;-52
2022/01/12 06:51:29;;;;;;;0.20;0.10;;;;;;;-0.36;100.00;102356.13;5014403;28;20452;-53
2022/01/12 06:53:56;;;;;;;0.20;0.10;;;;;;;-0.20;100.00;102360.38;5031739;28;20452;-53
2022/01/12 06:56:24;;;;;;;0.20;0.10;;;;;;;-0.51;100.00;102373.66;5035370;28;20451;-53
2022/01/12 06:58:51;;;;;;;0.20;0.10;;;;;;;-0.61;100.00;102389.69;5035448;28;20503;-53
2022/01/12 07:01:18;;;;;;;0.20;0.10;;;;;;;-0.32;100.00;102401.59;5035703;28;20448;-53
2022/01/12 07:03:45;;;;;;;0.20;0.10;;;;;;;-0.38;100.00;102409.13;5035746;28;20459;-54
2022/01/12 07:06:11;;;;;;;0.20;0.10;;;;;;;-0.52;100.00;102415.38;5035634;28;20451;-54
2022/01/12 07:08:38;;;;;;;0.20;0.10;;;;;;;-0.65;100.00;102426.91;5035598;28;20525;-53
2022/01/12 07:11:05;;;;;;;0.30;0.20;;;;;;;-0.62;100.00;102419.22;5035610;28;20983;-53
2022/01/12 07:13:31;;;;;;;0.20;0.10;;;;;;;-0.70;100.00;102417.94;5035382;28;20456;-53
2022/01/12 07:15:58;;;;;;;0.20;0.10;;;;;;;-0.52;100.00;102434.56;5035497;28;20508;-53
2022/01/12 07:18:26;;;;;;;0.20;0.10;;;;;;;-0.63;100.00;102443.56;5035511;28;20913;-53
2022/01/12 07:20:53;;;;;;;0.20;0.10;;;;;;;-0.38;100.00;102445.72;5035475;28;20964;-53
2022/01/12 07:23:19;;;;;;;0.30;0.27;;;;;;;-0.37;100.00;102452.72;5035610;28;20444;-54
2022/01/12 07:25:46;;;;;;;0.20;0.10;;;;;;;-0.42;100.00;102468.13;5035611;28;20502;-54
2022/01/12 07:28:12;;;;;;;0.20;0.10;;;;;;;-0.36;100.00;102467.56;5035274;28;20517;-53
2022/01/12 07:30:39;;;;;;;0.20;0.10;;;;;;;-0.37;100.00;102471.00;5035811;28;20455;-53
2022/01/12 07:33:10;;;;;;;0.20;0.10;;;;;;;-0.44;100.00;102485.47;5035413;28;20451;-54
2022/01/12 07:35:36;;;;;;;0.20;0.10;;;;;;;-0.51;100.00;102483.38;5035580;28;20443;-53
2022/01/12 07:38:03;;;;;;;0.20;0.10;;;;;;;-0.67;100.00;102476.44;5035044;28;20523;-54
2022/01/12 07:40:30;;;;;;;0.20;0.10;;;;;;;-0.69;100.00;102478.06;5035149;28;20452;-54
2022/01/12 07:42:57;;;;;;;0.20;0.10;;;;;;;-0.68;100.00;102484.22;5035397;28;20447;-54
2022/01/12 07:45:24;;;;;;;0.20;0.10;;;;;;;-0.71;100.00;102494.47;5035311;28;20455;-54
2022/01/12 07:47:51;;;;;;;0.20;0.10;;;;;;;-0.73;100.00;102490.88;5034782;28;20941;-54
2022/01/12 07:50:17;;;;;;;0.20;0.10;;;;;;;-0.81;100.00;102487.88;5035046;28;20462;-56
2022/01/12 07:52:44;;;;;;;0.20;0.10;;;;;;;-0.87;100.00;102486.66;5034876;28;20732;-54
2022/01/12 07:55:11;;;;;;;0.30;0.30;;;;;;;-0.86;100.00;102489.34;5034866;28;20451;-56
2022/01/12 07:57:38;;;;;;;0.20;0.10;;;;;;;-0.92;100.00;102484.69;5034817;28;20530;-55
2022/01/12 08:00:05;;;;;;;0.20;0.10;;;;;;;-0.65;100.00;102497.41;5034774;28;20533;-56
2022/01/12 08:02:32;;;;;;;0.20;0.10;;;;;;;-0.62;100.00;102505.41;5021680;28;20521;-54
2022/01/12 08:04:59;;;;;;;0.20;0.10;;;;;;;-0.58;100.00;102501.22;5034724;28;21023;-53
2022/01/12 08:07:25;;;;;;;0.20;0.10;;;;;;;-0.51;100.00;102490.31;5033750;28;21002;-53
2022/01/12 08:09:54;;;;;;;0.20;0.10;;;;;;;-0.54;100.00;102480.59;5034341;28;20622;-53
2022/01/12 08:12:21;;;;;;;0.20;0.10;;;;;;;-0.65;100.00;102481.75;5034702;28;20455;-53
2022/01/12 08:14:48;;;;;;;0.20;0.10;;;;;;;-0.61;100.00;102481.97;5034544;28;20463;-53
2022/01/12 08:17:14;;;;;;;0.20;0.10;;;;;;;-0.36;100.00;102488.47;5034508;28;20823;-53
2022/01/12 08:19:41;;;;;;;0.20;0.10;;;;;;;-0.19;100.00;102487.59;5034343;28;20471;-53
2022/01/12 08:22:09;;;;;;;0.30;0.10;;;;;;;0.02;100.00;102486.91;5016794;28;20454;-53
2022/01/12 08:24:35;;;;;;;0.20;0.10;;;;;;;0.16;100.00;102493.72;5034370;28;20455;-53
2022/01/12 08:27:06;;;;;;;0.20;0.20;;;;;;;0.22;100.00;102491.38;5034582;28;20452;-56
2022/01/12 08:29:33;;;;;;;0.20;0.10;;;;;;;0.25;100.00;102486.28;5034179;28;20467;-55
2022/01/12 08:32:00;;;;;;;0.20;0.10;;;;;;;0.27;100.00;102492.50;5034191;28;20933;-55
2022/01/12 08:34:27;;;;;;;0.23;0.13;;;;;;;0.26;100.00;102488.97;5033896;28;20882;-54
2022/01/12 08:36:54;;;;;;;0.20;0.10;;;;;;;0.16;100.00;102501.56;5034077;28;20459;-53
2022/01/12 08:39:21;;;;;;;0.20;0.13;;;;;;;0.24;100.00;102505.41;5034051;28;20549;-53
2022/01/12 08:41:47;;;;;;;1.40;1.30;;;;;;;0.44;100.00;102519.50;5034299;28;20505;-53
2022/01/12 08:44:30;;;;;;;4.00;2.87;;;;;;;0.46;100.00;102517.84;5034009;28;20451;-53
2022/01/12 08:46:57;;;;;;;0.20;0.10;;;;;;;0.63;100.00;102523.88;5033945;28;20486;-53
2022/01/12 08:49:24;;;;;;;0.20;0.10;;;;;;;0.62;100.00;102514.22;5033703;28;20463;-53
2022/01/12 08:51:50;;;;;;;3.07;2.13;;;;;;;0.53;100.00;102518.19;5034192;28;20451;-54
2022/01/12 08:54:18;;;;;;;0.20;0.20;;;;;;;0.58;100.00;102519.31;5033848;28;20447;-53
2022/01/12 08:56:46;;;;;;;0.20;0.20;;;;;;;0.58;100.00;102510.59;5033827;28;20513;-53
2022/01/12 08:59:13;;;;;;;0.20;0.10;;;;;;;0.52;100.00;102519.00;5033389;28;20495;-53
2022/01/12 09:01:40;;;;;;;0.40;0.40;;;;;;;0.71;100.00;102507.72;5016138;28;20448;-53
2022/01/12 09:04:08;;;;;;;0.20;0.10;;;;;;;0.71;100.00;102515.56;5033551;28;20487;-53
2022/01/12 09:06:34;;;;;;;4.80;1.13;;;;;;;0.88;100.00;102519.88;5033723;28;20979;-53
2022/01/12 09:09:02;;;;;;;0.20;0.10;;;;;;;1.04;100.00;102512.72;5033300;28;20468;-52
2022/01/12 09:11:31;;;;;;;0.20;0.10;;;;;;;1.03;100.00;102519.69;5033398;28;20535;-53
2022/01/12 09:13:58;;;;;;;0.40;0.37;;;;;;;1.17;100.00;102536.03;5033826;28;20452;-52
2022/01/12 09:16:24;;;;;;;0.20;0.10;;;;;;;1.40;100.00;102534.47;5033249;28;20451;-53
2022/01/12 09:18:51;;;;;;;0.20;0.10;;;;;;;1.31;100.00;102531.41;5033230;28;20495;-53
2022/01/12 09:21:18;;;;;;;0.20;0.10;;;;;;;1.48;100.00;102551.41;5033454;28;20459;-53
2022/01/12 09:23:45;;;;;;;0.20;0.10;;;;;;;1.35;100.00;102534.25;5033355;28;20491;-53
2022/01/12 09:26:11;;;;;;;0.30;0.20;;;;;;;1.54;100.00;102542.94;5033298;28;20448;-53
2022/01/12 09:28:39;;;;;;;0.20;0.10;;;;;;;1.59;100.00;102538.78;5033054;28;20468;-52
2022/01/12 09:31:05;;;;;;;0.20;0.10;;;;;;;1.69;100.00;102546.25;5033035;28;20452;-52
2022/01/12 09:33:32;;;;;;;0.33;0.30;;;;;;;1.72;100.00;102551.59;5033562;28;20451;-53
2022/01/12 09:35:59;;;;;;;0.20;0.10;;;;;;;1.80;100.00;102551.97;5033132;28;20502;-53
2022/01/12 09:38:26;;;;;;;0.20;0.10;;;;;;;1.83;100.00;102552.97;5032941;28;20495;-54
2022/01/12 09:40:54;;;;;;;0.30;0.20;;;;;;;2.13;100.00;102569.13;5032763;28;20501;-52
2022/01/12 09:43:28;;;;;;;0.20;0.10;;;;;;;2.39;100.00;102575.47;5032793;28;20452;-53
2022/01/12 09:45:55;;;;;;;0.20;0.10;;;;;;;2.41;100.00;102571.19;5032643;28;20475;-53
2022/01/12 09:48:23;;;;;;;1.07;0.93;;;;;;;2.40;100.00;102572.00;5032932;28;20908;-53
2022/01/12 09:50:58;;;;;;;0.20;0.10;;;;;;;2.43;100.00;102577.38;5032832;28;20509;-54
2022/01/12 09:53:25;;;;;;;0.20;0.10;;;;;;;2.93;100.00;102568.03;5032809;28;20448;-54
2022/01/12 09:55:51;;;;;;;0.20;0.10;;;;;;;2.55;100.00;102572.63;5032763;28;20505;-54
2022/01/12 09:58:18;;;;;;;0.20;0.20;;;;;;;2.41;100.00;102567.66;5032302;28;20499;-54
2022/01/12 10:00:59;;;;;;;0.20;0.10;;;;;;;2.54;100.00;102575.22;5033109;28;20448;-53
2022/01/12 10:03:30;;;;;;;1.33;1.27;;;;;;;2.80;100.00;102577.16;5032580;28;20483;-54
2022/01/12 10:05:57;;;;;;;0.20;0.10;;;;;;;2.59;100.00;102569.28;5032424;28;20991;-54
2022/01/12 10:08:23;;;;;;;0.20;0.10;;;;;;;2.61;100.00;102569.38;5032326;28;20523;-54
2022/01/12 10:11:08;;;;;;;0.20;0.10;;;;;;;2.61;100.00;102578.16;5032334;28;20447;-53
2022/01/12 10:13:37;;;;;;;0.20;0.10;;;;;;;2.66;100.00;102581.84;5032622;28;20447;-53
2022/01/12 10:16:14;;;;;;;0.20;0.10;;;;;;;2.56;100.00;102584.03;5032352;28;20995;-54
2022/01/12 10:18:52;;;;;;;0.20;0.10;;;;;;;2.46;100.00;102580.13;5032411;28;20599;-54
2022/01/12 10:21:26;;;;;;;2.10;2.00;;;;;;;2.49;100.00;102576.75;5032410;28;20448;-54
2022/01/12 10:24:02;;;;;;;0.20;0.10;;;;;;;2.61;100.00;102567.66;5032613;28;20451;-54
2022/01/12 10:26:34;;;;;;;4.83;2.23;;;;;;;2.43;100.00;102572.13;5032433;28;20451;-54
2022/01/12 10:29:16;;;;;;;0.20;0.10;;;;;;;2.52;100.00;102569.00;5032099;28;20513;-54
2022/01/12 10:31:52;;;;;;;0.20;0.10;;;;;;;2.48;100.00;102562.75;5032032;28;20439;-53
2022/01/12 10:34:23;;;;;;;0.20;0.10;;;;;;;2.55;100.00;102561.25;5032024;28;20509;-53
2022/01/12 10:36:52;;;;;;;2.23;2.03;;;;;;;2.61;100.00;102557.16;5032345;28;20854;-54
2022/01/12 10:39:21;;;;;;;0.20;0.10;;;;;;;2.76;100.00;102561.22;5032079;28;20554;-54
2022/01/12 10:42:07;;;;;;;0.20;0.10;;;;;;;2.73;100.00;102561.09;5032069;28;20455;-54
2022/01/12 10:44:44;;;;;;;0.20;0.20;;;;;;;3.04;100.00;102564.09;5031975;28;20944;-54
2022/01/12 10:47:16;;;;;;;0.20;0.10;;;;;;;3.04;100.00;102568.47;5032203;28;20880;-54
2022/01/12 10:49:53;;;;;;;0.20;0.20;;;;;;;3.37;100.00;102564.47;5032317;28;20498;-54
2022/01/12 10:52:23;;;;;;;0.23;0.17;;;;;;;3.48;100.00;102572.78;5031833;28;20447;-54
2022/01/12 10:54:56;;;;;;;0.30;0.30;;;;;;;3.55;100.00;102566.88;5032068;28;20989;-53
2022/01/12 10:57:31;;;;;;;0.20;0.10;;;;;;;3.64;100.00;102564.59;5032220;28;20510;-54
2022/01/12 11:00:24;;;;;;;0.20;0.10;;;;;;;3.62;100.00;102570.66;5032443;28;20523;-53
2022/01/12 11:02:58;;;;;;;0.20;0.10;;;;;;;3.68;99.36;102566.50;5020965;28;20990;-54
2022/01/12 11:05:27;;;;;;;0.20;0.13;;;;;;;3.71;100.00;102561.38;5031690;28;20444;-54
2022/01/12 11:07:54;;;;;;;0.20;0.20;;;;;;;3.77;100.00;102566.84;5031945;28;20930;-54
2022/01/12 11:10:22;;;;;;;0.23;0.17;;;;;;;4.02;100.00;102567.72;5027909;28;20459;-54
2022/01/12 11:12:50;;;;;;;0.20;0.10;;;;;;;4.16;100.00;102551.56;5029824;28;20448;-54
2022/01/12 11:15:19;;;;;;;0.20;0.10;;;;;;;3.89;100.00;102549.72;5031637;28;20861;-54
2022/01/12 11:17:48;;;;;;;0.20;0.20;;;;;;;3.90;100.00;102559.38;5032064;28;20456;-54
2022/01/12 11:20:22;;;;;;;0.20;0.10;;;;;;;4.18;99.77;102556.88;5031542;28;20996;-54
2022/01/12 11:22:59;;;;;;;0.20;0.10;;;;;;;4.22;98.68;102552.59;5031723;28;20448;-54
2022/01/12 11:25:48;;;;;;;0.20;0.10;;;;;;;4.06;99.63;102561.69;5002246;28;20448;-54
2022/01/12 11:28:36;;;;;;;0.20;0.10;;;;;;;4.32;99.36;102554.69;5031477;28;20472;-54
2022/01/12 11:31:04;;;;;;;0.20;0.10;;;;;;;4.26;98.79;102554.50;5031700;28;20497;-52
2022/01/12 11:33:31;;;;;;;0.20;0.10;;;;;;;4.33;98.92;102545.94;5031585;28;20455;-54
2022/01/12 11:36:04;;;;;;;0.20;0.10;;;;;;;4.13;99.79;102527.78;5031407;28;20447;-54
2022/01/12 11:38:36;;;;;;;0.20;0.10;;;;;;;4.29;99.95;102530.91;5031670;28;20598;-54
2022/01/12 11:41:10;;;;;;;0.20;0.13;;;;;;;4.43;99.79;102527.88;5031654;28;20505;-54
2022/01/12 11:43:45;;;;;;;0.20;0.10;;;;;;;4.31;98.26;102511.69;5034700;28;20451;-54
2022/01/12 11:46:13;;;;;;;0.20;0.10;;;;;;;4.15;98.84;102515.56;5034912;28;20439;-54
2022/01/12 11:48:47;;;;;;;0.20;0.20;;;;;;;4.20;98.74;102515.69;5034866;28;20471;-53
2022/01/12 11:51:17;;;;;;;0.20;0.10;;;;;;;4.20;97.93;102507.78;5022091;28;20455;-54
2022/01/12 11:53:46;;;;;;;0.20;0.10;;;;;;;4.30;98.83;102507.25;5035026;28;20518;-54
2022/01/12 11:56:15;;;;;;;0.20;0.10;;;;;;;4.43;96.96;102504.19;5034934;28;20463;-54
2022/01/12 11:59:05;;;;;;;0.20;0.10;;;;;;;4.56;96.96;102509.84;5034629;28;20542;-54
2022/01/12 12:01:41;;;;;;;0.20;0.20;;;;;;;4.68;96.08;102502.34;5034755;28;20797;-54
2022/01/12 12:04:09;;;;;;;0.60;0.60;;;;;;;5.02;95.70;102497.22;5034862;28;20870;-53
2022/01/12 12:06:36;;;;;;;0.20;0.10;;;;;;;5.28;95.12;102503.25;5034868;28;20459;-54
2022/01/12 12:09:10;;;;;;;0.20;0.20;;;;;;;5.04;93.68;102498.16;5034377;28;20984;-53
2022/01/12 12:11:36;;;;;;;0.20;0.10;;;;;;;5.08;94.11;102487.75;5034529;28;20494;-54
2022/01/12 12:14:08;;;;;;;0.20;0.10;;;;;;;5.23;94.61;102498.72;5034853;28;20452;-54
2022/01/12 12:16:36;;;;;;;0.20;0.10;;;;;;;5.15;93.50;102500.22;5034554;28;20483;-54
2022/01/12 12:19:04;;;;;;;0.20;0.10;;;;;;;5.11;92.65;102499.25;5034580;28;20565;-54
2022/01/12 12:21:33;;;;;;;0.20;0.20;;;;;;;5.13;92.44;102486.13;5034462;28;20481;-54
2022/01/12 12:24:11;;;;;;;0.20;0.10;;;;;;;4.98;93.18;102490.09;5034331;28;20443;-54
2022/01/12 12:26:43;;;;;;;0.20;0.10;;;;;;;5.18;91.19;102492.41;5034233;28;20447;-54
2022/01/12 12:29:10;;;;;;;0.20;0.10;;;;;;;5.14;92.73;102488.78;5034362;28;20467;-54
2022/01/12 12:31:39;;;;;;;0.30;0.20;;;;;;;5.22;93.07;102483.75;5034203;28;20456;-54
2022/01/12 12:34:24;;;;;;;0.20;0.20;;;;;;;5.09;93.34;102471.06;5034104;28;20506;-54
2022/01/12 12:37:06;;;;;;;0.20;0.10;;;;;;;5.24;94.14;102476.78;5034381;28;20462;-53
2022/01/12 12:39:35;;;;;;;0.20;0.10;;;;;;;5.15;94.53;102463.31;5033804;28;20491;-54
2022/01/12 12:42:05;;;;;;;0.20;0.20;;;;;;;5.17;92.63;102459.88;5034117;28;20455;-54
2022/01/12 12:44:33;;;;;;;0.20;0.10;;;;;;;5.24;92.07;102456.59;5033789;28;20451;-54
2022/01/12 12:47:13;;;;;;;0.20;0.10;;;;;;;5.19;90.52;102458.19;5033867;28;20501;-54